Time;durP1;ratioP1;P1;durP2;ratioP2;P2;SDS_P1;SDS_P2;PMS_P1;PMS_P2;Temp;Humidity;BMP_temperature;BMP_pressure;BME280_temperature;BME280_humidity;BME280_pressure;Samples;Min_cycle;Max_cycle;Signal;HPM_P1;HPM_P2
2022/04/23 00:01:03;;;;;;;17.27;14.63;;;11.40;99.90;;;;;;5008204;28;20052;-71
2022/04/23 00:03:29;;;;;;;17.48;13.95;;;11.50;99.90;;;;;;4989446;28;20061;-70
2022/04/23 00:05:55;;;;;;;18.40;13.73;;;11.40;99.90;;;;;;4988543;28;20053;-70
2022/04/23 00:08:21;;;;;;;17.45;14.25;;;11.20;99.90;;;;;;5008865;28;20614;-70
2022/04/23 00:10:47;;;;;;;19.02;14.23;;;11.20;99.90;;;;;;5017435;28;20048;-70
2022/04/23 00:13:13;;;;;;;16.70;14.30;;;11.20;99.90;;;;;;5010385;28;20534;-71
2022/04/23 00:15:38;;;;;;;17.25;14.02;;;11.20;99.90;;;;;;5010511;28;20072;-70
2022/04/23 00:18:08;;;;;;;19.50;13.38;;;11.00;99.90;;;;;;4989287;28;20056;-70
2022/04/23 00:20:35;;;;;;;19.63;14.60;;;11.10;99.90;;;;;;4977979;28;20569;-70
2022/04/23 00:23:01;;;;;;;17.88;14.35;;;11.00;99.90;;;;;;5013514;28;20067;-70
2022/04/23 00:25:27;;;;;;;17.73;14.18;;;10.90;99.90;;;;;;4991837;28;20079;-70
2022/04/23 00:27:53;;;;;;;17.90;14.43;;;10.90;99.90;;;;;;4988444;28;20052;-70
2022/04/23 00:30:19;;;;;;;17.52;14.27;;;10.70;99.90;;;;;;4994362;28;20678;-70
2022/04/23 00:32:45;;;;;;;19.90;14.27;;;10.80;99.90;;;;;;4994544;28;20076;-70
2022/04/23 00:35:16;;;;;;;19.02;15.02;;;10.80;99.90;;;;;;5009647;28;20077;-70
2022/04/23 00:37:42;;;;;;;18.48;14.68;;;10.70;99.90;;;;;;4996608;28;20407;-70
2022/04/23 00:40:16;;;;;;;18.20;14.35;;;10.70;99.90;;;;;;4972006;28;20048;-70
2022/04/23 00:42:54;;;;;;;19.30;15.18;;;10.60;99.90;;;;;;4992368;28;20056;-70
2022/04/23 00:45:24;;;;;;;18.58;14.90;;;10.70;99.90;;;;;;5012558;28;20055;-70
2022/04/23 00:47:51;;;;;;;17.27;14.27;;;10.70;99.90;;;;;;5021403;28;20124;-70
2022/04/23 00:50:21;;;;;;;18.63;15.20;;;10.60;99.90;;;;;;5025792;28;20037;-70
2022/04/23 00:52:52;;;;;;;18.58;15.10;;;10.80;99.90;;;;;;4991747;28;20065;-70
2022/04/23 00:55:19;;;;;;;18.23;14.95;;;10.60;99.90;;;;;;5005822;28;20414;-70
2022/04/23 00:57:46;;;;;;;18.08;15.30;;;10.60;99.90;;;;;;5002880;28;20075;-70
2022/04/23 01:00:12;;;;;;;20.38;15.25;;;10.60;99.90;;;;;;5003526;28;20509;-70
2022/04/23 01:02:38;;;;;;;20.58;15.95;;;10.60;99.90;;;;;;5007477;28;20053;-70
2022/04/23 01:05:09;;;;;;;20.02;16.67;;;10.50;99.90;;;;;;5007997;28;20057;-70
2022/04/23 01:07:38;;;;;;;20.63;15.77;;;10.60;99.90;;;;;;5024065;28;20040;-70
2022/04/23 01:10:08;;;;;;;21.52;16.58;;;10.50;99.90;;;;;;5008636;28;21096;-70
2022/04/23 01:12:35;;;;;;;20.55;15.93;;;10.50;99.90;;;;;;5022901;28;20049;-70
2022/04/23 01:15:09;;;;;;;19.00;14.73;;;10.50;99.90;;;;;;5008337;28;20081;-70
2022/04/23 01:17:36;;;;;;;20.20;16.85;;;10.50;99.90;;;;;;5005376;28;20523;-70
2022/04/23 01:20:08;;;;;;;18.25;15.65;;;10.50;99.90;;;;;;4989318;28;20057;-70
2022/04/23 01:22:36;;;;;;;18.23;15.80;;;10.50;99.90;;;;;;5023532;28;20041;-70
2022/04/23 01:25:08;;;;;;;19.52;15.25;;;10.70;99.90;;;;;;5023223;28;20108;-70
2022/04/23 01:27:34;;;;;;;18.67;15.95;;;10.80;99.90;;;;;;5008646;28;20577;-70
2022/04/23 01:30:01;;;;;;;19.00;15.55;;;10.90;99.90;;;;;;5003224;28;20202;-70
2022/04/23 01:32:27;;;;;;;19.20;15.60;;;10.90;99.90;;;;;;5015095;28;20178;-70
2022/04/23 01:34:53;;;;;;;19.27;16.00;;;10.80;99.90;;;;;;5020476;28;20049;-70
2022/04/23 01:37:19;;;;;;;17.60;14.82;;;10.80;99.90;;;;;;5007701;28;20053;-71
2022/04/23 01:39:46;;;;;;;16.55;14.00;;;10.90;99.90;;;;;;5020209;28;20091;-70
2022/04/23 01:42:12;;;;;;;19.90;16.17;;;10.90;99.90;;;;;;5000878;28;20678;-70
2022/04/23 01:44:38;;;;;;;18.65;16.48;;;10.90;99.90;;;;;;5020588;28;20052;-70
2022/04/23 01:47:04;;;;;;;18.85;16.50;;;10.80;99.90;;;;;;5024522;28;20049;-70
2022/04/23 01:49:30;;;;;;;18.10;15.57;;;10.80;99.90;;;;;;5026296;28;20554;-70
2022/04/23 01:51:56;;;;;;;18.85;16.85;;;10.70;99.90;;;;;;5005002;28;20044;-70
2022/04/23 01:54:21;;;;;;;18.40;16.30;;;10.80;99.90;;;;;;5003119;28;20060;-70
2022/04/23 01:56:47;;;;;;;18.50;15.75;;;10.70;99.90;;;;;;5006430;28;20063;-70
2022/04/23 01:59:14;;;;;;;17.63;15.15;;;10.60;99.90;;;;;;5021716;28;20162;-70
2022/04/23 02:01:41;;;;;;;18.02;16.13;;;10.60;99.90;;;;;;5021835;28;20144;-70
2022/04/23 02:04:08;;;;;;;17.58;15.68;;;10.60;99.90;;;;;;5022071;28;20083;-70
2022/04/23 02:06:35;;;;;;;18.05;14.73;;;10.60;99.90;;;;;;5027045;28;20045;-70
2022/04/23 02:09:03;;;;;;;17.50;15.20;;;10.60;99.90;;;;;;5024239;28;20056;-70
2022/04/23 02:11:29;;;;;;;18.23;16.00;;;10.70;99.90;;;;;;5003431;28;20130;-70
2022/04/23 02:13:55;;;;;;;18.75;15.55;;;10.60;99.90;;;;;;5006600;28;20048;-70
2022/04/23 02:16:21;;;;;;;18.02;14.13;;;10.50;99.90;;;;;;5013890;28;20044;-70
2022/04/23 02:18:47;;;;;;;18.90;15.68;;;10.60;99.90;;;;;;5021895;28;20076;-70
2022/04/23 02:21:13;;;;;;;19.33;14.98;;;10.60;99.90;;;;;;5013161;28;20419;-70
2022/04/23 02:23:39;;;;;;;17.55;15.00;;;10.50;99.90;;;;;;5023533;28;20058;-70
2022/04/23 02:26:05;;;;;;;18.20;15.43;;;10.60;99.90;;;;;;5006017;28;20048;-70
2022/04/23 02:28:35;;;;;;;18.33;15.00;;;10.60;99.90;;;;;;5023859;28;20125;-70
2022/04/23 02:31:00;;;;;;;16.75;13.57;;;10.60;99.90;;;;;;5003338;28;20057;-70
2022/04/23 02:33:26;;;;;;;19.45;14.82;;;10.50;99.90;;;;;;5018903;28;20053;-70
2022/04/23 02:35:52;;;;;;;17.65;14.82;;;10.60;99.90;;;;;;5022451;28;20061;-71
2022/04/23 02:38:18;;;;;;;15.90;14.13;;;10.60;99.90;;;;;;5016243;28;20047;-70
2022/04/23 02:40:44;;;;;;;16.63;13.93;;;10.60;99.90;;;;;;5019095;28;20052;-70
2022/04/23 02:43:12;;;;;;;16.42;13.43;;;10.60;99.90;;;;;;5021990;28;20107;-70
2022/04/23 02:45:39;;;;;;;16.63;14.07;;;10.50;99.90;;;;;;5000043;28;20557;-70
2022/04/23 02:48:05;;;;;;;15.65;13.60;;;10.50;99.90;;;;;;5017984;28;20210;-70
2022/04/23 02:50:38;;;;;;;17.08;13.63;;;10.40;99.90;;;;;;5000973;28;20037;-70
2022/04/23 02:53:06;;;;;;;15.77;13.98;;;10.50;99.90;;;;;;4982510;28;20083;-70
2022/04/23 02:55:33;;;;;;;15.30;13.10;;;10.50;99.90;;;;;;5014673;28;20080;-70
2022/04/23 02:58:09;;;;;;;15.57;13.82;;;10.30;99.90;;;;;;5014965;28;20055;-70
2022/04/23 03:00:38;;;;;;;18.00;13.55;;;10.30;99.90;;;;;;5000545;28;20396;-70
2022/04/23 03:03:05;;;;;;;15.68;12.40;;;10.30;99.90;;;;;;5020965;28;20072;-70
2022/04/23 03:05:31;;;;;;;15.77;13.20;;;10.30;99.90;;;;;;5002417;28;20056;-70
2022/04/23 03:08:02;;;;;;;17.35;13.95;;;10.30;99.90;;;;;;5019155;28;20221;-70
2022/04/23 03:10:29;;;;;;;15.60;13.45;;;10.30;99.90;;;;;;5021261;28;20462;-70
2022/04/23 03:12:56;;;;;;;16.65;14.05;;;10.10;99.90;;;;;;5023838;28;20099;-70
2022/04/23 03:15:23;;;;;;;17.20;12.90;;;10.10;99.90;;;;;;5020577;28;20049;-70
2022/04/23 03:17:49;;;;;;;19.70;13.65;;;10.00;99.90;;;;;;5005468;28;20052;-70
2022/04/23 03:20:16;;;;;;;16.20;12.88;;;9.90;99.90;;;;;;5004857;28;20045;-70
2022/04/23 03:22:43;;;;;;;15.57;12.98;;;10.00;99.90;;;;;;5023497;28;21058;-70
2022/04/23 03:25:10;;;;;;;17.60;13.27;;;9.90;99.90;;;;;;5025739;28;20090;-70
2022/04/23 03:27:36;;;;;;;17.25;12.38;;;9.90;99.90;;;;;;5008218;28;20051;-70
2022/04/23 03:30:04;;;;;;;15.05;13.07;;;9.80;99.90;;;;;;5005637;28;20098;-70
2022/04/23 03:32:31;;;;;;;15.15;13.55;;;9.80;99.90;;;;;;5005037;28;20062;-70
2022/04/23 03:34:59;;;;;;;15.20;13.52;;;9.60;99.90;;;;;;5024033;28;20135;-70
2022/04/23 03:37:25;;;;;;;17.65;13.38;;;9.50;99.90;;;;;;5004652;28;21522;-70
2022/04/23 03:39:51;;;;;;;14.02;11.88;;;9.50;99.90;;;;;;5009752;28;20052;-70
2022/04/23 03:42:17;;;;;;;14.93;12.52;;;9.60;99.90;;;;;;5023316;28;20892;-70
2022/04/23 03:44:43;;;;;;;16.23;13.27;;;9.40;99.90;;;;;;5020957;28;20052;-70
2022/04/23 03:47:08;;;;;;;15.77;13.00;;;9.40;99.90;;;;;;4988953;28;20044;-70
2022/04/23 03:49:34;;;;;;;17.73;13.73;;;9.30;99.90;;;;;;5025716;28;20045;-70
2022/04/23 03:52:00;;;;;;;16.75;13.27;;;9.30;99.90;;;;;;5024498;28;20061;-70
2022/04/23 03:54:26;;;;;;;17.65;13.60;;;9.30;99.90;;;;;;5004407;28;20072;-70
2022/04/23 03:56:52;;;;;;;17.10;13.48;;;9.20;99.90;;;;;;5007918;28;20049;-70
2022/04/23 03:59:21;;;;;;;17.00;12.98;;;9.30;99.90;;;;;;5003220;28;21043;-70
2022/04/23 04:01:55;;;;;;;18.65;13.55;;;9.20;99.90;;;;;;5021472;28;20056;-71
2022/04/23 04:04:21;;;;;;;16.90;12.90;;;9.30;99.90;;;;;;5006290;28;20871;-72
2022/04/23 04:06:47;;;;;;;16.73;13.80;;;9.20;99.90;;;;;;5010642;28;20097;-71
2022/04/23 04:09:13;;;;;;;14.65;12.13;;;9.20;99.90;;;;;;5023704;28;20041;-70
2022/04/23 04:14:23;;;;;;;16.35;11.80;;;9.30;99.90;;;;;;5005554;28;20515;-70
2022/04/23 04:16:50;;;;;;;14.02;11.60;;;9.40;99.90;;;;;;5007170;28;20057;-70
2022/04/23 04:19:16;;;;;;;14.38;11.70;;;9.60;99.90;;;;;;5025019;28;20395;-71
2022/04/23 04:21:43;;;;;;;15.80;11.68;;;9.50;99.90;;;;;;5003735;28;20055;-70
2022/04/23 04:24:12;;;;;;;13.65;11.50;;;9.40;99.90;;;;;;5023775;28;20049;-70
2022/04/23 04:26:43;;;;;;;14.75;11.80;;;9.50;99.90;;;;;;5007405;28;20040;-70
2022/04/23 04:29:10;;;;;;;14.90;11.50;;;9.40;99.90;;;;;;5013000;28;20059;-71
2022/04/23 04:31:51;;;;;;;13.45;10.75;;;9.40;99.90;;;;;;5023790;28;20036;-70
2022/04/23 04:34:20;;;;;;;14.50;10.75;;;9.40;99.90;;;;;;5027467;28;20624;-71
2022/04/23 04:36:47;;;;;;;13.70;10.43;;;9.50;99.90;;;;;;5024421;28;20044;-71
2022/04/23 04:39:15;;;;;;;13.60;11.23;;;9.50;99.90;;;;;;5005883;28;20040;-71
2022/04/23 04:41:41;;;;;;;14.98;10.98;;;9.50;99.90;;;;;;5022862;28;20045;-71
2022/04/23 04:44:07;;;;;;;13.95;10.75;;;9.50;99.90;;;;;;5024756;28;20060;-71
2022/04/23 04:46:34;;;;;;;12.43;9.82;;;9.70;99.90;;;;;;5021394;28;20048;-71
2022/04/23 04:49:01;;;;;;;12.35;10.60;;;9.60;99.90;;;;;;5023683;28;20515;-71
2022/04/23 04:51:27;;;;;;;12.80;11.25;;;9.80;99.90;;;;;;5006847;28;20040;-70
2022/04/23 04:53:53;;;;;;;12.27;10.38;;;9.80;99.90;;;;;;4993436;28;20053;-71
2022/04/23 04:56:19;;;;;;;13.00;10.30;;;10.00;99.90;;;;;;5006761;28;20492;-71
2022/04/23 04:58:46;;;;;;;11.15;8.88;;;10.30;99.90;;;;;;5019766;28;20041;-71
2022/04/23 05:01:12;;;;;;;12.05;9.20;;;10.50;99.90;;;;;;5019981;28;20081;-71
2022/04/23 05:03:40;;;;;;;11.48;9.95;;;10.80;99.90;;;;;;5010642;28;20551;-71
2022/04/23 05:06:09;;;;;;;13.68;9.32;;;11.30;99.90;;;;;;5022852;28;20750;-71
2022/04/23 05:08:36;;;;;;;10.95;8.50;;;11.50;99.90;;;;;;5005652;28;20083;-71
2022/04/23 05:11:02;;;;;;;11.73;8.95;;;11.40;99.90;;;;;;5026651;28;20051;-71
2022/04/23 05:13:28;;;;;;;10.63;9.05;;;11.60;99.90;;;;;;5024886;28;20051;-70
2022/04/23 05:15:55;;;;;;;12.45;8.95;;;11.40;99.90;;;;;;5026465;28;20064;-71
2022/04/23 05:18:20;;;;;;;9.85;8.25;;;11.90;99.90;;;;;;5005603;28;20132;-71
2022/04/23 05:20:46;;;;;;;9.52;7.90;;;11.40;99.90;;;;;;5026728;28;20063;-71
2022/04/23 05:23:13;;;;;;;10.98;8.13;;;11.00;99.90;;;;;;5025068;28;20143;-71
2022/04/23 05:25:39;;;;;;;10.07;8.10;;;10.80;99.90;;;;;;5006454;28;20616;-71
2022/04/23 05:28:05;;;;;;;10.38;8.07;;;11.10;99.90;;;;;;5023737;28;20053;-71
2022/04/23 05:30:30;;;;;;;9.55;7.50;;;11.40;99.90;;;;;;5023376;28;20420;-72
2022/04/23 05:32:56;;;;;;;9.82;7.80;;;11.70;99.90;;;;;;5025371;28;20116;-70
2022/04/23 05:35:22;;;;;;;10.45;7.72;;;11.60;99.90;;;;;;5004931;28;20739;-71
2022/04/23 05:37:48;;;;;;;10.30;7.57;;;11.50;99.90;;;;;;5020894;28;20170;-71
2022/04/23 05:40:14;;;;;;;17.27;8.52;;;11.80;99.90;;;;;;5022951;28;20059;-71
2022/04/23 05:42:40;;;;;;;9.52;7.63;;;12.00;99.90;;;;;;5023159;28;20059;-71
2022/04/23 05:45:06;;;;;;;11.23;7.90;;;11.80;99.90;;;;;;5022126;28;20129;-71
2022/04/23 05:47:31;;;;;;;10.82;8.40;;;11.80;99.90;;;;;;5003214;28;20107;-71
2022/04/23 05:49:57;;;;;;;9.57;8.10;;;11.10;99.90;;;;;;5005660;28;20053;-71
2022/04/23 05:52:23;;;;;;;11.75;8.32;;;11.00;99.90;;;;;;5025473;28;20053;-71
2022/04/23 05:54:49;;;;;;;11.00;8.18;;;11.20;99.90;;;;;;5024110;28;20048;-70
2022/04/23 05:57:15;;;;;;;13.23;8.45;;;11.00;99.90;;;;;;5020338;28;20037;-71
2022/04/23 05:59:41;;;;;;;14.60;8.90;;;11.10;99.90;;;;;;5025707;28;20056;-71
2022/04/23 06:02:08;;;;;;;15.05;9.18;;;11.10;99.90;;;;;;5004284;28;20052;-70
2022/04/23 06:04:33;;;;;;;10.82;9.23;;;11.20;99.90;;;;;;5021701;28;20048;-71
2022/04/23 06:06:59;;;;;;;11.88;9.23;;;11.30;99.90;;;;;;5022981;28;20051;-71
2022/04/23 06:09:25;;;;;;;12.10;8.80;;;11.30;99.90;;;;;;5028484;28;20049;-70
2022/04/23 06:11:51;;;;;;;11.90;8.40;;;11.10;99.90;;;;;;5010397;28;20049;-71
2022/04/23 06:14:17;;;;;;;13.50;9.25;;;10.90;99.90;;;;;;5003704;28;20593;-71
2022/04/23 06:16:43;;;;;;;15.25;10.18;;;10.90;99.90;;;;;;5025514;28;20125;-70
2022/04/23 06:19:08;;;;;;;11.40;10.00;;;10.80;99.90;;;;;;5021473;28;20685;-70
2022/04/23 06:21:34;;;;;;;16.45;10.10;;;10.70;99.90;;;;;;5027826;28;20071;-70
2022/04/23 06:24:00;;;;;;;13.80;10.13;;;10.90;99.90;;;;;;5003582;28;20059;-70
2022/04/23 06:26:26;;;;;;;11.60;9.45;;;11.10;99.90;;;;;;5007174;28;20482;-71
2022/04/23 06:28:52;;;;;;;15.77;10.27;;;11.20;99.90;;;;;;5026307;28;20049;-71
2022/04/23 06:31:19;;;;;;;12.85;10.02;;;11.20;99.90;;;;;;5006284;28;20966;-69
2022/04/23 06:33:45;;;;;;;12.73;10.20;;;11.40;99.90;;;;;;5023132;28;20136;-70
2022/04/23 06:36:11;;;;;;;14.25;9.98;;;11.70;99.90;;;;;;5024239;28;20202;-69
2022/04/23 06:38:37;;;;;;;12.68;10.40;;;11.60;99.90;;;;;;5024094;28;20049;-71
2022/04/23 06:41:03;;;;;;;15.30;10.45;;;11.80;99.90;;;;;;5005211;28;20052;-71
2022/04/23 06:43:29;;;;;;;17.13;10.43;;;11.70;99.90;;;;;;5022867;28;20048;-70
2022/04/23 06:45:55;;;;;;;12.70;9.85;;;11.80;99.90;;;;;;5008044;28;20526;-71
2022/04/23 06:48:20;;;;;;;13.63;10.77;;;12.00;99.90;;;;;;5025624;28;20048;-71
2022/04/23 06:50:46;;;;;;;14.05;10.57;;;11.80;99.90;;;;;;5008931;28;20071;-71
2022/04/23 06:53:12;;;;;;;12.88;11.30;;;11.80;99.90;;;;;;5020149;28;20052;-72
2022/04/23 06:55:39;;;;;;;14.52;11.13;;;12.00;99.90;;;;;;5001658;28;20443;-71
2022/04/23 06:58:04;;;;;;;14.20;10.75;;;12.10;99.90;;;;;;5019684;28;20072;-71
2022/04/23 07:00:30;;;;;;;13.85;10.70;;;12.10;99.90;;;;;;5017153;28;20174;-71
2022/04/23 07:02:56;;;;;;;19.20;11.55;;;12.20;99.90;;;;;;5004299;28;20048;-71
2022/04/23 07:05:22;;;;;;;14.13;10.90;;;12.40;99.90;;;;;;5002868;28;20079;-72
2022/04/23 07:07:59;;;;;;;14.55;11.13;;;12.20;99.90;;;;;;5006237;28;20091;-71
2022/04/23 07:10:29;;;;;;;13.07;11.00;;;12.30;99.90;;;;;;5008631;28;20053;-71
2022/04/23 07:12:56;;;;;;;13.13;11.13;;;12.60;99.90;;;;;;5022564;28;20668;-71
2022/04/23 07:15:23;;;;;;;16.10;11.55;;;12.40;99.90;;;;;;5016705;28;20041;-72
2022/04/23 07:17:50;;;;;;;13.13;11.23;;;12.50;99.90;;;;;;5021416;28;20555;-71
2022/04/23 07:20:17;;;;;;;18.50;11.35;;;12.40;99.90;;;;;;5018576;28;20129;-71
2022/04/23 07:25:29;;;;;;;14.10;11.52;;;12.90;99.90;;;;;;5021701;28;22420;-72
2022/04/23 07:27:54;;;;;;;13.25;11.27;;;12.80;99.90;;;;;;5025610;28;20036;-72
2022/04/23 07:30:21;;;;;;;14.90;11.55;;;13.00;99.90;;;;;;5024175;28;20785;-72
2022/04/23 07:32:46;;;;;;;15.90;12.18;;;12.80;99.90;;;;;;5002606;28;20122;-72
2022/04/23 07:37:57;;;;;;;16.20;12.05;;;13.10;99.90;;;;;;5024438;28;20806;-72
2022/04/23 07:40:23;;;;;;;18.58;12.07;;;13.10;99.90;;;;;;5020572;28;20132;-72
2022/04/23 07:42:49;;;;;;;15.10;11.43;;;13.00;99.90;;;;;;4999226;28;20569;-72
2022/04/23 07:45:15;;;;;;;15.88;11.45;;;13.60;99.90;;;;;;5016756;28;20059;-73
2022/04/23 07:47:41;;;;;;;13.68;10.68;;;13.20;99.90;;;;;;5018001;28;20041;-73
2022/04/23 07:50:08;;;;;;;16.00;11.25;;;13.20;99.90;;;;;;5001933;28;20056;-72
2022/04/23 07:52:35;;;;;;;15.50;10.60;;;13.20;99.90;;;;;;5019643;28;20057;-71
2022/04/23 07:55:05;;;;;;;17.27;11.20;;;13.60;99.90;;;;;;5014649;28;20045;-72
2022/04/23 07:57:31;;;;;;;15.40;10.88;;;13.40;99.90;;;;;;5002598;28;20171;-71
2022/04/23 07:59:57;;;;;;;15.50;11.48;;;13.60;99.90;;;;;;5008343;28;20044;-72
2022/04/23 08:02:23;;;;;;;13.23;10.48;;;14.30;99.90;;;;;;5004333;28;20107;-72
2022/04/23 08:04:49;;;;;;;15.57;11.48;;;13.80;99.90;;;;;;4983105;28;20452;-73
2022/04/23 08:07:15;;;;;;;15.00;11.65;;;13.70;99.90;;;;;;4982661;28;20044;-73
2022/04/23 08:09:41;;;;;;;16.17;9.90;;;13.50;99.90;;;;;;4963266;28;20148;-72
2022/04/23 08:12:07;;;;;;;13.60;10.18;;;13.60;99.90;;;;;;5004468;28;20179;-72
2022/04/23 08:14:33;;;;;;;13.55;9.75;;;13.70;99.90;;;;;;5013910;28;20067;-72
2022/04/23 08:16:59;;;;;;;16.33;10.43;;;13.70;99.90;;;;;;4995573;28;20049;-72
2022/04/23 08:19:25;;;;;;;14.57;11.02;;;14.10;99.90;;;;;;5016102;28;20041;-72
2022/04/23 08:21:51;;;;;;;14.52;9.85;;;14.10;99.20;;;;;;5002394;28;20056;-72
2022/04/23 08:24:19;;;;;;;11.98;9.65;;;14.20;99.90;;;;;;5001785;28;20049;-72
2022/04/23 08:26:45;;;;;;;13.90;9.52;;;14.30;99.90;;;;;;5016144;28;20481;-71
2022/04/23 08:31:55;;;;;;;13.18;9.55;;;14.10;97.90;;;;;;5022829;28;22570;-72
2022/04/23 08:34:21;;;;;;;12.38;10.13;;;14.10;97.30;;;;;;5000370;28;20056;-73
2022/04/23 08:36:49;;;;;;;12.85;9.93;;;14.20;96.80;;;;;;4987260;28;20052;-71
2022/04/23 08:39:16;;;;;;;14.98;9.82;;;14.50;99.90;;;;;;5012488;28;20057;-72
2022/04/23 08:41:45;;;;;;;11.48;8.80;;;14.60;99.90;;;;;;5017574;28;20415;-72
2022/04/23 08:44:11;;;;;;;12.60;9.30;;;14.60;90.90;;;;;;5016808;28;20743;-73
2022/04/23 08:46:38;;;;;;;11.93;9.18;;;14.20;90.20;;;;;;5011290;28;20048;-72
2022/04/23 08:49:16;;;;;;;13.15;10.05;;;14.20;92.00;;;;;;5017394;28;20119;-72
2022/04/23 08:51:53;;;;;;;13.95;9.70;;;14.50;99.90;;;;;;5016333;28;20044;-72
2022/04/23 08:54:22;;;;;;;11.45;9.70;;;14.60;98.20;;;;;;5015223;28;20132;-71
2022/04/23 08:56:48;;;;;;;12.32;9.73;;;14.20;92.60;;;;;;4985206;28;20040;-72
2022/04/23 08:59:16;;;;;;;13.43;9.50;;;14.50;99.90;;;;;;5020821;28;20532;-71
2022/04/23 09:01:44;;;;;;;12.45;9.07;;;14.60;90.70;;;;;;5001998;28;20171;-75
2022/04/23 09:04:11;;;;;;;12.75;9.65;;;14.50;95.60;;;;;;5019319;28;20039;-74
2022/04/23 09:06:38;;;;;;;12.55;9.63;;;14.60;91.10;;;;;;4980247;28;20049;-74
2022/04/23 09:09:18;;;;;;;14.32;9.48;;;15.00;99.70;;;;;;5000097;28;20084;-76
2022/04/23 09:11:56;;;;;;;12.13;9.40;;;14.70;90.20;;;;;;5004681;28;20045;-76
2022/04/23 09:14:29;;;;;;;12.95;10.48;;;14.50;96.60;;;;;;5018748;28;20056;-74
2022/04/23 09:25:36;;;;;;;12.43;9.73;;;15.10;93.00;;;;;;5027755;28;20064;-75
2022/04/23 09:28:17;;;;;;;12.85;10.00;;;14.70;85.50;;;;;;5024205;28;20041;-73
2022/04/23 09:30:44;;;;;;;10.68;9.13;;;15.30;99.90;;;;;;5031300;28;20037;-75
2022/04/23 09:33:10;;;;;;;12.68;10.65;;;15.30;90.90;;;;;;5026060;28;20395;-74
2022/04/23 09:35:54;;;;;;;11.52;9.85;;;15.50;89.30;;;;;;5025487;28;20132;-75
2022/04/23 09:38:20;;;;;;;16.75;10.27;;;15.20;79.50;;;;;;5025689;28;20472;-74
2022/04/23 09:40:56;;;;;;;11.63;10.18;;;15.60;96.70;;;;;;5026791;28;20551;-75
2022/04/23 09:43:26;;;;;;;14.15;9.88;;;15.00;77.50;;;;;;5006375;28;20132;-75
2022/04/23 09:46:03;;;;;;;12.07;10.35;;;15.20;83.80;;;;;;5026516;28;20118;-75
2022/04/23 09:48:30;;;;;;;13.00;10.52;;;15.50;91.10;;;;;;5020195;28;21014;-74
2022/04/23 09:50:59;;;;;;;12.98;10.68;;;15.50;77.70;;;;;;5024328;28;20185;-74
2022/04/23 09:53:28;;;;;;;15.10;10.52;;;15.60;84.40;;;;;;5008059;28;20387;-75
2022/04/23 09:55:59;;;;;;;13.50;10.38;;;15.80;89.10;;;;;;5032115;28;20068;-74
2022/04/23 09:58:33;;;;;;;14.13;11.02;;;15.50;85.30;;;;;;5028745;28;20052;-75
2022/04/23 10:00:59;;;;;;;13.05;10.52;;;15.40;84.00;;;;;;5028215;28;20507;-74
2022/04/23 10:03:33;;;;;;;11.80;10.13;;;15.40;87.50;;;;;;5015953;28;20080;-74
2022/04/23 10:06:01;;;;;;;11.55;10.32;;;15.60;80.10;;;;;;5028998;28;20037;-75
2022/04/23 10:08:35;;;;;;;13.18;10.68;;;15.80;74.40;;;;;;5026026;28;20671;-73
2022/04/23 10:11:11;;;;;;;18.65;11.05;;;15.90;76.20;;;;;;5008656;28;20128;-74
2022/04/23 10:13:43;;;;;;;13.32;10.85;;;16.30;98.10;;;;;;5008128;28;20131;-76
2022/04/23 10:16:11;;;;;;;15.07;10.70;;;15.90;74.00;;;;;;5029755;28;20083;-76
2022/04/23 10:18:38;;;;;;;12.82;10.32;;;15.80;74.30;;;;;;5024625;28;21005;-74
2022/04/23 10:21:09;;;;;;;14.02;11.00;;;16.10;90.30;;;;;;5029411;28;20041;-75
2022/04/23 10:23:53;;;;;;;13.25;10.43;;;15.90;74.10;;;;;;5032198;28;20044;-74
2022/04/23 10:26:34;;;;;;;12.63;10.45;;;16.50;78.80;;;;;;5025833;28;20044;-77
2022/04/23 10:29:06;;;;;;;15.73;10.57;;;16.10;71.80;;;;;;5025317;28;20147;-75
2022/04/23 10:31:31;;;;;;;15.20;10.65;;;16.10;84.00;;;;;;5025734;28;20064;-75
2022/04/23 10:33:57;;;;;;;12.50;10.38;;;16.30;78.80;;;;;;5026565;28;20094;-74
2022/04/23 10:36:24;;;;;;;12.77;10.05;;;16.20;76.00;;;;;;5019980;28;20054;-72
2022/04/23 10:39:10;;;;;;;12.10;10.15;;;16.20;83.40;;;;;;5019347;28;20053;-74
2022/04/23 10:41:36;;;;;;;14.27;10.57;;;16.50;70.50;;;;;;5022321;28;20609;-75
2022/04/23 10:44:04;;;;;;;12.57;10.27;;;16.60;75.00;;;;;;5020638;28;20183;-74
2022/04/23 10:46:45;;;;;;;14.60;10.63;;;15.90;70.70;;;;;;5005822;28;20056;-76
2022/04/23 10:49:14;;;;;;;12.73;10.07;;;16.20;80.80;;;;;;5021876;28;20124;-74
2022/04/23 10:51:59;;;;;;;12.63;10.05;;;16.20;69.00;;;;;;5007710;28;20864;-73
2022/04/23 10:54:40;;;;;;;12.15;10.20;;;16.20;69.40;;;;;;5030500;28;20129;-75
2022/04/23 10:57:10;;;;;;;12.57;10.52;;;16.50;73.00;;;;;;5024603;28;20509;-75
2022/04/23 10:59:46;;;;;;;12.60;10.07;;;16.20;70.20;;;;;;4993738;28;20067;-74
2022/04/23 11:02:24;;;;;;;10.88;9.18;;;16.20;74.50;;;;;;4990050;28;20144;-75
2022/04/23 11:13:49;;;;;;;11.20;9.05;;;16.60;75.30;;;;;;5024724;28;20301;-71
2022/04/23 11:16:19;;;;;;;12.90;9.15;;;16.60;66.70;;;;;;5026149;28;20132;-72
2022/04/23 11:18:46;;;;;;;13.05;9.07;;;16.30;64.70;;;;;;5006834;28;20052;-72
2022/04/23 11:21:16;;;;;;;13.52;9.43;;;16.50;68.60;;;;;;5026668;28;20216;-72
2022/04/23 11:23:45;;;;;;;14.25;9.00;;;17.10;71.10;;;;;;5024183;28;20049;-72
2022/04/23 11:26:18;;;;;;;12.27;9.35;;;16.90;67.00;;;;;;5024585;28;20083;-71
2022/04/23 11:28:56;;;;;;;12.68;9.73;;;16.30;64.90;;;;;;5022897;28;20051;-72
2022/04/23 11:31:21;;;;;;;11.50;9.77;;;16.30;65.50;;;;;;5025555;28;20048;-72
2022/04/23 11:33:58;;;;;;;12.25;9.30;;;16.80;72.90;;;;;;5021936;28;20060;-72
2022/04/23 11:36:29;;;;;;;12.68;9.88;;;16.50;64.80;;;;;;5027423;28;20064;-71
2022/04/23 11:38:56;;;;;;;13.45;8.77;;;16.90;67.80;;;;;;5013347;28;20154;-71
2022/04/23 11:41:36;;;;;;;11.57;8.40;;;17.30;69.20;;;;;;5028803;28;20056;-71
2022/04/23 11:47:07;;;;;;;;;;;16.80;65.50;;;;;;5031805;28;20045;-72
2022/04/23 11:49:33;;;;;;;13.02;7.20;;;17.00;63.70;;;;;;5031741;28;19974;-72
2022/04/23 11:52:12;;;;;;;10.52;7.47;;;17.30;64.70;;;;;;5014485;28;20064;-71
2022/04/23 11:54:40;;;;;;;12.05;8.35;;;17.30;65.20;;;;;;5028588;28;20124;-71
2022/04/23 11:57:13;;;;;;;9.82;8.02;;;17.00;63.30;;;;;;5009584;28;20047;-71
2022/04/23 11:59:40;;;;;;;13.00;7.70;;;16.90;63.40;;;;;;5029856;28;20053;-73
2022/04/23 12:02:18;;;;;;;10.52;7.97;;;17.00;61.40;;;;;;5029445;28;20037;-73
2022/04/23 12:04:50;;;;;;;11.10;7.60;;;17.10;62.10;;;;;;5009430;28;20048;-71
2022/04/23 12:07:17;;;;;;;10.23;7.07;;;17.20;63.10;;;;;;5012031;28;20530;-72
2022/04/23 12:09:51;;;;;;;10.57;6.80;;;17.20;61.10;;;;;;5010193;28;20107;-74
2022/04/23 12:12:25;;;;;;;10.38;6.97;;;17.10;58.30;;;;;;5028442;28;20260;-72
2022/04/23 12:15:14;;;;;;;11.88;7.20;;;17.00;59.70;;;;;;5024431;28;20127;-74
2022/04/23 12:17:48;;;;;;;13.70;7.53;;;17.40;63.40;;;;;;5028476;28;20056;-72
2022/04/23 12:20:16;;;;;;;11.52;7.15;;;17.30;61.90;;;;;;5026768;28;20055;-71
2022/04/23 12:22:54;;;;;;;11.55;7.30;;;17.30;60.70;;;;;;5027723;28;20048;-70
2022/04/23 12:25:21;;;;;;;9.80;6.78;;;17.60;60.80;;;;;;5029923;28;20069;-73
2022/04/23 12:42:12;;;;;;;11.55;6.65;;;17.30;58.40;;;;;;5018073;28;20091;-72
2022/04/23 12:44:42;;;;;;;10.68;7.18;;;17.70;59.10;;;;;;5004989;28;20139;-72
2022/04/23 12:47:10;;;;;;;8.50;6.40;;;18.10;62.10;;;;;;5028798;28;20048;-73
2022/04/23 12:49:56;;;;;;;14.57;6.22;;;17.50;56.10;;;;;;5026059;28;20048;-75
2022/04/23 12:52:29;;;;;;;10.43;6.13;;;17.80;59.20;;;;;;5026295;28;20045;-72
2022/04/23 12:55:17;;;;;;;9.83;6.13;;;17.90;58.50;;;;;;5020787;28;20040;-72
2022/04/23 12:57:44;;;;;;;9.30;5.70;;;17.60;56.70;;;;;;5016674;28;20106;-71
2022/04/23 13:00:16;;;;;;;7.97;5.70;;;17.40;53.40;;;;;;5025710;28;20037;-72
2022/04/23 13:02:45;;;;;;;8.55;5.88;;;17.50;53.20;;;;;;5031305;28;20037;-72
2022/04/23 13:05:12;;;;;;;10.80;6.47;;;17.80;57.30;;;;;;5025881;28;20079;-72
2022/04/23 13:10:23;;;;;;;10.93;5.80;;;18.10;55.90;;;;;;5028507;28;20115;-73
2022/04/23 13:12:49;;;;;;;8.25;6.18;;;18.00;57.10;;;;;;5025544;28;20629;-72
2022/04/23 13:15:18;;;;;;;9.98;5.70;;;18.50;58.80;;;;;;5009790;28;20048;-72
2022/04/23 13:17:46;;;;;;;12.25;5.82;;;17.80;53.90;;;;;;5029969;28;20047;-73
2022/04/23 13:20:14;;;;;;;12.02;5.72;;;18.10;54.80;;;;;;5009500;28;20049;-72
2022/04/23 13:22:43;;;;;;;10.63;5.72;;;18.20;54.30;;;;;;5027271;28;20506;-71
2022/04/23 13:25:11;;;;;;;10.02;5.90;;;17.90;52.90;;;;;;5004192;28;20973;-72
2022/04/23 13:27:37;;;;;;;15.70;6.53;;;18.00;53.20;;;;;;5009703;28;20041;-71